createdAt,value
2018-08-04T00:01:38.222Z,62.69
2018-08-04T00:03:50.443Z,63.30
2018-08-04T00:06:02.698Z,63.22
2018-08-04T00:08:15.009Z,62.99
2018-08-04T00:10:27.243Z,62.65
2018-08-04T00:12:40.143Z,63.44
2018-08-04T00:14:52.348Z,63.91
2018-08-04T00:17:04.767Z,64.34
2018-08-04T00:19:17.023Z,64.32
2018-08-04T00:21:29.290Z,64.65
2018-08-04T00:23:41.508Z,64.46
2018-08-04T00:25:53.794Z,63.53
2018-08-04T00:28:06.039Z,64.35
2018-08-04T00:30:18.310Z,64.06
2018-08-04T00:32:30.636Z,64.98
2018-08-04T00:34:42.830Z,64.91
2018-08-04T00:36:55.078Z,64.62
2018-08-04T00:39:07.331Z,64.27
2018-08-04T00:41:19.622Z,64.98
2018-08-04T00:43:31.831Z,64.79
2018-08-04T00:45:44.079Z,64.22
2018-08-04T00:47:56.336Z,64.95
2018-08-04T00:50:09.609Z,65.10
2018-08-04T00:52:21.842Z,65.13
2018-08-04T00:54:34.091Z,64.74
2018-08-04T00:56:46.332Z,64.25
2018-08-04T00:58:58.590Z,65.17
2018-08-04T01:01:10.797Z,64.57
2018-08-04T01:03:23.044Z,65.73
2018-08-04T01:05:35.308Z,65.96
2018-08-04T01:07:47.546Z,65.09
2018-08-04T01:10:02.770Z,65.34
2018-08-04T01:12:15.074Z,64.60
2018-08-04T01:14:27.310Z,65.08
2018-08-04T01:16:39.560Z,65.34
2018-08-04T01:18:51.767Z,66.24
2018-08-04T01:21:03.999Z,66.68
2018-08-04T01:23:16.225Z,66.11
2018-08-04T01:25:28.459Z,67.30
2018-08-04T01:27:40.696Z,67.47
2018-08-04T01:29:52.948Z,66.39
2018-08-04T01:32:05.158Z,66.87
2018-08-04T01:34:17.364Z,66.95
2018-08-04T01:36:29.582Z,66.44
2018-08-04T01:38:41.800Z,65.89
2018-08-04T01:40:54.046Z,66.05
2018-08-04T01:43:06.274Z,66.65
2018-08-04T01:45:18.523Z,66.48
2018-08-04T01:47:30.759Z,66.34
2018-08-04T01:49:43.007Z,67.34
2018-08-04T01:51:55.243Z,66.56
2018-08-04T01:54:07.473Z,66.95
2018-08-04T01:56:19.658Z,66.64
2018-08-04T01:58:31.882Z,66.12
2018-08-04T02:00:44.139Z,66.99
2018-08-04T02:02:56.392Z,66.28
2018-08-04T02:05:08.685Z,66.55
2018-08-04T02:07:20.974Z,67.88
2018-08-04T02:09:33.178Z,67.12
2018-08-04T02:11:45.366Z,67.89
2018-08-04T02:13:57.609Z,67.27
2018-08-04T02:16:09.968Z,67.14
2018-08-04T02:18:22.191Z,67.54
2018-08-04T02:20:34.411Z,67.74
2018-08-04T02:22:46.614Z,66.88
2018-08-04T02:24:58.903Z,67.14
2018-08-04T02:27:11.064Z,67.30
2018-08-04T02:29:23.283Z,67.21
2018-08-04T02:31:35.479Z,66.44
2018-08-04T02:33:47.723Z,66.67
2018-08-04T02:35:59.915Z,66.54
2018-08-04T02:38:12.136Z,67.20
2018-08-04T02:40:24.387Z,67.44
2018-08-04T02:42:36.584Z,67.88
2018-08-04T02:44:48.810Z,68.17
2018-08-04T02:47:01.047Z,67.36
2018-08-04T02:49:13.332Z,67.92
2018-08-04T02:51:25.506Z,68.10
2018-08-04T02:53:37.704Z,68.12
2018-08-04T02:55:49.927Z,68.05
2018-08-04T02:58:02.139Z,68.45
2018-08-04T03:00:14.410Z,69.47
2018-08-04T03:02:26.583Z,68.48
2018-08-04T03:04:38.874Z,68.39
2018-08-04T03:06:51.070Z,69.09
2018-08-04T03:09:05.618Z,69.01
2018-08-04T03:11:17.830Z,68.12
2018-08-04T03:13:30.047Z,68.93
2018-08-04T03:15:42.278Z,68.29
2018-08-04T03:17:54.471Z,69.19
2018-08-04T03:20:07.091Z,69.17
2018-08-04T03:22:19.329Z,69.37
2018-08-04T03:24:31.543Z,68.70
2018-08-04T03:26:43.752Z,69.67
2018-08-04T03:28:56.282Z,69.44
2018-08-04T03:31:08.539Z,68.63
2018-08-04T03:33:20.734Z,69.24
2018-08-04T03:35:33.003Z,69.14
2018-08-04T03:37:45.188Z,69.57
2018-08-04T03:39:57.419Z,69.61
2018-08-04T03:42:09.654Z,69.61
2018-08-04T03:44:21.858Z,69.99
2018-08-04T03:46:34.170Z,69.62
2018-08-04T03:48:46.349Z,69.27
2018-08-04T03:50:58.597Z,69.14
2018-08-04T03:53:10.838Z,70.06
2018-08-04T03:55:23.086Z,70.24
2018-08-04T03:57:35.303Z,70.17
2018-08-04T03:59:47.613Z,69.84
2018-08-04T04:01:59.787Z,70.61
2018-08-04T04:04:12.031Z,70.34
2018-08-04T04:06:24.267Z,71.63
2018-08-04T04:08:36.489Z,71.20
2018-08-04T04:10:48.695Z,71.36
2018-08-04T04:13:00.973Z,71.46
2018-08-04T04:15:13.181Z,72.13
2018-08-04T04:17:25.427Z,71.48
2018-08-04T04:19:37.605Z,71.41
2018-08-04T04:21:49.831Z,71.49
2018-08-04T04:24:02.031Z,71.69
2018-08-04T04:26:14.204Z,71.76
2018-08-04T04:28:26.426Z,71.34
2018-08-04T04:30:38.612Z,71.06
2018-08-04T04:32:50.839Z,70.56
2018-08-04T04:35:03.045Z,71.37
2018-08-04T04:37:15.278Z,70.23
2018-08-04T04:39:27.482Z,70.38
2018-08-04T04:41:40.375Z,70.11
2018-08-04T04:43:52.810Z,71.03
2018-08-04T04:46:05.041Z,71.18
2018-08-04T04:48:17.265Z,71.11
2018-08-04T04:50:29.523Z,70.05
2018-08-04T04:52:41.800Z,69.74
2018-08-04T04:54:54.018Z,69.84
2018-08-04T04:57:06.238Z,69.83
2018-08-04T04:59:18.498Z,69.44
2018-08-04T05:01:30.759Z,69.90
2018-08-04T05:03:43.016Z,69.62
2018-08-04T05:05:55.266Z,68.70
2018-08-04T05:08:07.455Z,68.99
2018-08-04T05:10:19.678Z,67.87
2018-08-04T05:12:31.871Z,68.37
2018-08-04T05:14:44.116Z,67.68
2018-08-04T05:16:56.360Z,67.88
2018-08-04T05:19:08.693Z,67.31
2018-08-04T05:21:20.883Z,68.09
2018-08-04T05:23:33.051Z,67.40
2018-08-04T05:25:45.254Z,68.05
2018-08-04T05:27:57.466Z,67.29
2018-08-04T05:30:09.727Z,66.87
2018-08-04T05:32:21.920Z,67.68
2018-08-04T05:34:34.144Z,67.73
2018-08-04T05:36:46.391Z,66.84
2018-08-04T05:38:58.594Z,66.67
2018-08-04T05:41:10.800Z,66.78
2018-08-04T05:43:23.091Z,65.96
2018-08-04T05:45:35.220Z,65.25
2018-08-04T05:47:47.444Z,65.35
2018-08-04T05:49:59.650Z,65.02
2018-08-04T05:52:11.910Z,64.42
2018-08-04T05:54:24.194Z,62.18
2018-08-04T05:56:36.407Z,62.21
2018-08-04T05:58:48.600Z,61.53
2018-08-04T06:01:00.816Z,61.69
2018-08-04T06:03:13.116Z,62.12
2018-08-04T06:05:25.302Z,62.09
2018-08-04T06:07:37.603Z,62.15
2018-08-04T06:09:49.811Z,62.30
2018-08-04T06:12:02.022Z,61.42
2018-08-04T06:14:14.256Z,62.31
2018-08-04T06:16:26.499Z,60.74
2018-08-04T06:18:38.706Z,60.69
2018-08-04T06:20:51.030Z,60.71
2018-08-04T06:23:03.202Z,61.09
2018-08-04T06:25:15.447Z,62.50
2018-08-04T06:27:27.669Z,62.47
2018-08-04T06:29:39.862Z,61.48
2018-08-04T06:31:52.100Z,61.60
2018-08-04T06:34:04.832Z,60.67
2018-08-04T06:36:17.042Z,60.44
2018-08-04T06:38:29.243Z,60.02
2018-08-04T06:40:41.476Z,60.78
2018-08-04T06:42:53.710Z,61.20
2018-08-04T06:45:06.012Z,60.87
2018-08-04T06:47:18.213Z,60.31
2018-08-04T06:49:30.552Z,58.40
2018-08-04T06:51:42.762Z,58.12
2018-08-04T06:53:55.063Z,58.62
2018-08-04T06:56:07.342Z,58.17
2018-08-04T06:58:19.592Z,56.93
2018-08-04T07:00:31.839Z,57.67
2018-08-04T07:02:44.060Z,56.93
2018-08-04T07:04:56.296Z,56.47
2018-08-04T07:07:09.215Z,57.24
2018-08-04T07:09:21.431Z,55.75
2018-08-04T07:11:33.668Z,54.95
2018-08-04T07:13:45.986Z,55.82
2018-08-04T07:15:58.225Z,53.96
2018-08-04T07:18:10.438Z,53.62
2018-08-04T07:20:22.722Z,52.93
2018-08-04T07:22:34.999Z,51.41
2018-08-04T07:24:47.217Z,51.83
2018-08-04T07:26:59.438Z,51.51
2018-08-04T07:29:11.742Z,52.89
2018-08-04T07:40:43.303Z,50.94
2018-08-04T07:42:55.528Z,49.98
2018-08-04T07:45:07.829Z,49.50
2018-08-04T07:47:20.109Z,50.13
2018-08-04T07:49:32.330Z,49.96
2018-08-04T07:51:45.487Z,48.34
2018-08-04T07:53:57.779Z,49.08
2018-08-04T07:56:10.064Z,49.01
2018-08-04T07:58:22.317Z,48.07
2018-08-04T08:00:34.538Z,47.31
2018-08-04T08:02:46.836Z,48.84
2018-08-04T08:04:59.125Z,48.07
2018-08-04T08:07:11.365Z,47.72
2018-08-04T08:09:23.635Z,48.23
2018-08-04T08:11:35.975Z,48.10
2018-08-04T08:13:48.207Z,47.88
2018-08-04T08:16:00.439Z,46.67
2018-08-04T08:18:12.692Z,48.18
2018-08-04T08:20:24.970Z,47.40
2018-08-04T08:22:40.663Z,47.07
2018-08-04T08:24:52.997Z,45.78
2018-08-04T08:27:05.310Z,46.53
2018-08-04T08:29:17.543Z,45.55
2018-08-04T08:31:29.846Z,47.12
2018-08-04T08:33:44.374Z,43.65
2018-08-04T08:35:56.586Z,43.28
2018-08-04T08:38:08.860Z,44.31
2018-08-04T08:40:21.203Z,42.28
2018-08-04T08:42:33.410Z,42.11
2018-08-04T08:44:45.725Z,42.95
2018-08-04T08:46:57.947Z,42.00
2018-08-04T08:49:10.199Z,42.33
2018-08-04T08:51:22.447Z,43.64
2018-08-04T08:53:34.777Z,40.82
2018-08-04T08:55:46.974Z,42.30
2018-08-04T08:57:59.221Z,42.46
2018-08-04T09:00:11.527Z,42.04
2018-08-04T09:02:23.807Z,41.58
2018-08-04T09:04:36.107Z,42.71
2018-08-04T09:06:48.398Z,43.00
2018-08-04T09:09:00.668Z,41.00
2018-08-04T09:11:12.903Z,41.79
2018-08-04T09:13:25.167Z,41.07
2018-08-04T09:15:37.481Z,41.51
2018-08-04T09:17:49.758Z,42.33
2018-08-04T09:20:02.064Z,41.49
2018-08-04T09:22:14.306Z,42.28
2018-08-04T09:24:26.531Z,42.89
2018-08-04T09:26:38.742Z,40.57
2018-08-04T09:28:51.040Z,39.91
2018-08-04T09:31:03.332Z,39.82
2018-08-04T09:33:15.626Z,39.77
2018-08-04T09:35:27.897Z,38.68
2018-08-04T09:37:40.162Z,37.14
2018-08-04T09:39:52.393Z,38.77
2018-08-04T09:42:04.701Z,40.37
2018-08-04T09:44:16.920Z,42.05
2018-08-04T09:46:29.166Z,39.20
2018-08-04T09:48:41.365Z,40.63
2018-08-04T09:50:53.670Z,40.20
2018-08-04T09:53:05.890Z,40.50
2018-08-04T09:55:18.159Z,37.71
2018-08-04T09:57:30.351Z,38.69
2018-08-04T09:59:42.669Z,38.89
2018-08-04T10:02:00.711Z,38.78
2018-08-04T10:04:12.961Z,38.83
2018-08-04T10:06:25.244Z,38.93
2018-08-04T10:08:37.495Z,39.58
2018-08-04T10:10:49.801Z,38.49
2018-08-04T10:13:02.131Z,36.44
2018-08-04T10:15:15.351Z,36.19
2018-08-04T10:17:27.669Z,36.42
2018-08-04T10:19:40.576Z,37.19
2018-08-04T10:21:52.875Z,37.10
2018-08-04T10:24:05.306Z,36.89
2018-08-04T10:26:17.592Z,36.31
2018-08-04T10:28:29.846Z,35.80
2018-08-04T10:30:42.059Z,36.06
2018-08-04T10:32:54.410Z,36.23
2018-08-04T10:35:07.510Z,36.66
2018-08-04T10:37:19.809Z,35.30
2018-08-04T10:39:32.143Z,34.97
2018-08-04T10:41:44.323Z,34.69
2018-08-04T10:43:56.552Z,34.30
2018-08-04T10:46:08.864Z,34.33
2018-08-04T10:48:21.208Z,34.23
2018-08-04T10:50:33.462Z,32.58
2018-08-04T10:52:45.807Z,33.81
2018-08-04T10:54:58.081Z,32.97
2018-08-04T10:57:10.379Z,33.33
2018-08-04T10:59:22.676Z,34.40
2018-08-04T11:01:35.018Z,33.63
2018-08-04T11:03:47.451Z,33.46
2018-08-04T11:05:59.702Z,33.04
2018-08-04T11:08:11.956Z,31.91
2018-08-04T11:10:24.177Z,31.54
2018-08-04T11:12:36.451Z,33.18
2018-08-04T11:14:49.975Z,32.05
2018-08-04T11:17:02.239Z,34.24
2018-08-04T11:19:14.707Z,31.70
2018-08-04T11:21:26.975Z,33.81
2018-08-04T11:23:39.203Z,32.52
2018-08-04T11:25:51.447Z,30.24
2018-08-04T11:28:05.472Z,32.96
2018-08-04T11:30:17.738Z,31.54
2018-08-04T11:32:29.977Z,30.56
2018-08-04T11:34:42.211Z,30.21
2018-08-04T11:36:54.463Z,31.52
2018-08-04T11:39:08.328Z,32.54
2018-08-04T11:41:20.619Z,33.04
2018-08-04T11:43:32.891Z,28.14
2018-08-04T11:45:46.745Z,29.18
2018-08-04T11:47:59.042Z,28.88
2018-08-04T11:50:11.702Z,30.14
2018-08-04T11:52:23.958Z,29.11
2018-08-04T11:54:36.376Z,28.96
2018-08-04T11:56:48.641Z,28.25
2018-08-04T11:59:00.912Z,29.38
2018-08-04T12:01:13.240Z,28.92
2018-08-04T12:03:25.519Z,30.32
2018-08-04T12:05:38.700Z,27.15
2018-08-04T12:07:51.028Z,29.38
2018-08-04T12:10:03.468Z,28.42
2018-08-04T12:12:15.766Z,30.37
2018-08-04T12:14:28.009Z,27.68
2018-08-04T12:16:40.295Z,29.36
2018-08-04T12:18:52.702Z,29.65
2018-08-04T12:21:04.956Z,28.77
2018-08-04T12:23:17.263Z,27.24
2018-08-04T12:25:29.599Z,28.07
2018-08-04T12:27:41.846Z,25.68
2018-08-04T12:29:54.123Z,25.79
2018-08-04T12:32:06.589Z,27.58
2018-08-04T12:34:18.907Z,26.29
2018-08-04T12:36:31.175Z,25.85
2018-08-04T12:38:43.440Z,25.70
2018-08-04T12:40:55.700Z,26.52
2018-08-04T12:43:07.943Z,24.95
2018-08-04T12:45:21.389Z,26.22
2018-08-04T12:47:33.710Z,26.79
2018-08-04T12:49:46.039Z,26.13
2018-08-04T12:51:58.297Z,26.71
2018-08-04T12:54:11.089Z,25.96
2018-08-04T12:56:23.380Z,26.37
2018-08-04T12:58:35.761Z,28.28
2018-08-04T13:00:48.144Z,26.88
2018-08-04T13:03:00.387Z,26.07
2018-08-04T13:05:12.632Z,26.89
2018-08-04T13:07:24.873Z,26.18
2018-08-04T13:09:37.121Z,27.01
2018-08-04T13:11:49.389Z,26.85
2018-08-04T13:14:01.734Z,27.21
2018-08-04T13:16:13.987Z,28.20
2018-08-04T13:18:26.243Z,26.59
2018-08-04T13:20:38.699Z,25.61
2018-08-04T13:22:50.945Z,25.92
2018-08-04T13:25:03.773Z,26.77
2018-08-04T13:27:16.096Z,26.85
2018-08-04T13:29:28.388Z,26.56
2018-08-04T13:31:40.676Z,26.03
2018-08-04T13:33:52.910Z,26.22
2018-08-04T13:36:05.169Z,26.84
2018-08-04T13:38:17.448Z,24.38
2018-08-04T13:40:29.730Z,26.24
2018-08-04T13:42:42.047Z,24.44
2018-08-04T13:44:54.304Z,25.21
2018-08-04T13:47:07.304Z,24.88
2018-08-04T13:49:19.558Z,27.15
2018-08-04T13:51:31.954Z,26.93
2018-08-04T13:53:44.206Z,26.45
2018-08-04T13:55:57.036Z,27.22
2018-08-04T13:58:09.320Z,27.44
2018-08-04T14:00:21.591Z,26.22
2018-08-04T14:02:33.999Z,27.51
2018-08-04T14:04:46.217Z,27.87
2018-08-04T14:06:58.604Z,27.76
2018-08-04T14:09:11.403Z,26.74
2018-08-04T14:11:24.244Z,28.00
2018-08-04T14:13:37.092Z,26.71
2018-08-04T14:15:49.285Z,26.27
2018-08-04T14:18:01.540Z,28.32
2018-08-04T14:20:13.802Z,27.73
2018-08-04T14:22:26.624Z,27.24
2018-08-04T14:24:38.977Z,28.17
2018-08-04T14:26:51.228Z,28.52
2018-08-04T14:29:03.592Z,27.78
2018-08-04T14:31:15.839Z,28.36
2018-08-04T14:33:28.095Z,28.10
2018-08-04T14:35:40.296Z,27.68
2018-08-04T14:37:52.542Z,28.38
2018-08-04T14:40:04.832Z,26.14
2018-08-04T14:42:17.051Z,28.93
2018-08-04T14:44:30.596Z,28.04
2018-08-04T14:46:42.823Z,27.05
2018-08-04T14:48:56.014Z,27.08
2018-08-04T14:51:08.311Z,26.03
2018-08-04T14:53:20.709Z,27.04
2018-08-04T14:55:32.951Z,27.96
2018-08-04T14:57:45.231Z,28.37
2018-08-04T15:03:23.681Z,27.71
2018-08-04T15:05:35.999Z,28.23
2018-08-04T15:07:48.232Z,28.41
2018-08-04T15:10:00.535Z,27.35
2018-08-04T15:12:12.894Z,29.18
2018-08-04T15:14:25.163Z,28.69
2018-08-04T15:16:40.454Z,27.69
2018-08-04T15:18:58.931Z,28.69
2018-08-04T15:21:24.319Z,28.08
2018-08-04T15:23:39.230Z,28.56
2018-08-04T15:25:55.335Z,27.67
2018-08-04T15:28:22.313Z,29.74
2018-08-04T15:30:36.207Z,29.28
2018-08-04T15:32:49.688Z,27.85
2018-08-04T15:35:02.054Z,27.93
2018-08-04T15:37:14.540Z,27.85
2018-08-04T15:39:26.808Z,28.85
2018-08-04T15:41:39.135Z,28.04
2018-08-04T15:43:51.311Z,27.89
2018-08-04T15:46:03.598Z,29.22
2018-08-04T15:48:16.775Z,28.01
2018-08-04T15:50:29.058Z,26.86
2018-08-04T15:52:41.327Z,26.70
2018-08-04T15:54:53.581Z,28.02
2018-08-04T15:57:05.999Z,26.95
2018-08-04T15:59:18.294Z,25.94
2018-08-04T16:01:30.608Z,28.69
2018-08-04T16:03:42.926Z,27.83
2018-08-04T16:05:55.106Z,28.17
2018-08-04T16:08:07.361Z,26.16
2018-08-04T16:10:19.654Z,27.30
2018-08-04T16:12:31.891Z,26.95
2018-08-04T16:14:44.164Z,28.45
2018-08-04T16:16:56.430Z,30.07
2018-08-04T16:19:09.040Z,29.70
2018-08-04T16:21:21.238Z,28.95
2018-08-04T16:23:33.529Z,28.33
2018-08-04T16:25:45.773Z,29.04
2018-08-04T16:27:58.058Z,29.28
2018-08-04T16:30:10.728Z,30.96
2018-08-04T16:32:22.938Z,30.42
2018-08-04T16:34:35.222Z,30.21
2018-08-04T16:36:47.451Z,31.21
2018-08-04T16:38:59.675Z,30.78
2018-08-04T16:41:11.935Z,29.94
2018-08-04T16:43:24.140Z,30.20
2018-08-04T16:45:36.374Z,30.35
2018-08-04T16:47:48.623Z,28.51
2018-08-04T16:50:00.840Z,30.42
2018-08-04T16:52:13.084Z,30.31
2018-08-04T16:54:25.328Z,29.25
2018-08-04T16:56:37.566Z,30.17
2018-08-04T16:58:49.780Z,29.59
2018-08-04T17:01:02.026Z,29.66
2018-08-04T17:03:14.300Z,30.17
2018-08-04T17:05:26.517Z,29.54
2018-08-04T17:07:38.781Z,30.53
2018-08-04T17:09:51.000Z,30.92
2018-08-04T17:12:03.292Z,29.82
2018-08-04T17:14:15.525Z,29.70
2018-08-04T17:16:27.772Z,30.49
2018-08-04T17:18:39.994Z,30.05
2018-08-04T17:20:52.210Z,31.24
2018-08-04T17:23:04.470Z,32.34
2018-08-04T17:25:16.678Z,31.75
2018-08-04T17:27:28.926Z,31.65
2018-08-04T17:29:41.147Z,31.70
2018-08-04T17:31:53.401Z,32.07
2018-08-04T17:34:05.577Z,31.69
2018-08-04T17:36:17.886Z,31.67
2018-08-04T17:38:30.119Z,32.52
2018-08-04T17:40:42.303Z,32.20
2018-08-04T17:42:54.581Z,32.67
2018-08-04T17:45:06.819Z,32.73
2018-08-04T17:47:19.012Z,32.31
2018-08-04T17:49:31.230Z,33.32
2018-08-04T17:51:43.458Z,33.18
2018-08-04T17:53:56.799Z,32.55
2018-08-04T17:56:09.012Z,33.32
2018-08-04T17:58:21.230Z,32.25
2018-08-04T18:00:33.498Z,33.64
2018-08-04T18:02:45.746Z,34.01
2018-08-04T18:04:57.964Z,33.81
2018-08-04T18:07:10.166Z,35.55
2018-08-04T18:09:22.399Z,34.88
2018-08-04T18:11:34.618Z,35.73
2018-08-04T18:13:46.837Z,36.00
2018-08-04T18:15:59.066Z,35.54
2018-08-04T18:18:11.266Z,36.73
2018-08-04T18:20:23.545Z,36.54
2018-08-04T18:22:35.814Z,36.82
2018-08-04T18:24:48.115Z,37.08
2018-08-04T18:27:00.370Z,38.00
2018-08-04T18:29:12.636Z,36.47
2018-08-04T18:31:24.850Z,37.33
2018-08-04T18:33:37.097Z,37.46
2018-08-04T18:35:49.340Z,37.30
2018-08-04T18:38:01.567Z,37.27
2018-08-04T18:40:13.802Z,36.63
2018-08-04T18:42:26.037Z,37.99
2018-08-04T18:44:38.318Z,39.33
2018-08-04T18:46:50.496Z,39.50
2018-08-04T18:49:02.731Z,40.23
2018-08-04T18:51:14.951Z,41.23
2018-08-04T18:53:27.166Z,41.22
2018-08-04T18:55:39.403Z,41.63
2018-08-04T18:57:51.665Z,41.98
2018-08-04T19:00:04.577Z,42.91
2018-08-04T19:02:16.847Z,42.70
2018-08-04T19:04:29.083Z,43.78
2018-08-04T19:06:41.367Z,43.02
2018-08-04T19:08:53.641Z,44.69
2018-08-04T19:11:05.874Z,44.91
2018-08-04T19:13:18.102Z,44.07
2018-08-04T19:15:30.272Z,44.38
2018-08-04T19:17:42.550Z,45.44
2018-08-04T19:19:54.746Z,45.48
2018-08-04T19:22:07.054Z,45.84
2018-08-04T19:24:19.258Z,45.53
2018-08-04T19:26:31.505Z,45.31
2018-08-04T19:28:43.738Z,45.40
2018-08-04T19:30:55.937Z,45.27
2018-08-04T19:33:08.145Z,45.63
2018-08-04T19:35:20.406Z,45.39
2018-08-04T19:37:32.687Z,45.53
2018-08-04T19:39:44.919Z,45.89
2018-08-04T19:41:57.144Z,46.03
2018-08-04T19:44:09.474Z,46.06
2018-08-04T19:46:21.723Z,46.58
2018-08-04T19:48:34.245Z,46.92
2018-08-04T19:50:46.477Z,46.59
2018-08-04T19:52:58.687Z,46.42
2018-08-04T19:55:10.913Z,46.50
2018-08-04T19:57:23.171Z,46.78
2018-08-04T19:59:35.411Z,47.44
2018-08-04T20:01:47.657Z,47.93
2018-08-04T20:03:59.882Z,47.64
2018-08-04T20:06:12.075Z,48.51
2018-08-04T20:08:25.778Z,48.35
2018-08-04T20:10:37.973Z,48.67
2018-08-04T20:12:50.223Z,49.68
2018-08-04T20:15:02.513Z,48.96
2018-08-04T20:17:14.745Z,49.50
2018-08-04T20:19:27.018Z,48.78
2018-08-04T20:21:39.226Z,48.56
2018-08-04T20:23:51.402Z,49.18
2018-08-04T20:26:03.675Z,49.12
2018-08-04T20:28:15.891Z,50.08
2018-08-04T20:30:28.127Z,49.88
2018-08-04T20:32:40.368Z,49.62
2018-08-04T20:34:52.628Z,50.61
2018-08-04T20:37:04.884Z,50.18
2018-08-04T20:39:17.091Z,51.01
2018-08-04T20:41:29.302Z,51.17
2018-08-04T20:43:41.462Z,50.57
2018-08-04T20:45:53.695Z,50.73
2018-08-04T20:48:05.896Z,50.82
2018-08-04T20:50:18.174Z,50.98
2018-08-04T20:52:30.444Z,51.07
2018-08-04T20:54:42.660Z,50.29
2018-08-04T20:56:54.959Z,51.48
2018-08-04T20:59:07.174Z,50.75
2018-08-04T21:01:35.495Z,52.39
2018-08-04T21:03:47.734Z,52.65
2018-08-04T21:06:00.382Z,52.18
2018-08-04T21:08:12.615Z,52.08
2018-08-04T21:10:24.859Z,51.27
2018-08-04T21:12:37.102Z,52.35
2018-08-04T21:14:49.835Z,52.21
2018-08-04T21:17:02.062Z,51.95
2018-08-04T21:19:14.564Z,51.91
2018-08-04T21:21:26.747Z,52.56
2018-08-04T21:23:39.002Z,52.75
2018-08-04T21:25:51.203Z,52.49
2018-08-04T21:28:03.453Z,52.26
2018-08-04T21:30:15.684Z,52.28
2018-08-04T21:32:27.856Z,52.61
2018-08-04T21:34:40.171Z,53.07
2018-08-04T21:36:52.393Z,52.99
2018-08-04T21:39:07.243Z,52.02
2018-08-04T21:41:19.454Z,52.74
2018-08-04T21:43:31.679Z,53.20
2018-08-04T21:45:43.985Z,52.84
2018-08-04T21:47:56.183Z,52.92
2018-08-04T21:50:08.561Z,52.01
2018-08-04T21:52:20.807Z,51.94
2018-08-04T21:54:32.946Z,52.30
2018-08-04T21:56:45.561Z,52.95
2018-08-04T21:58:57.750Z,53.23
2018-08-04T22:01:12.834Z,53.53
2018-08-04T22:03:25.074Z,53.45
2018-08-04T22:05:37.275Z,53.22
2018-08-04T22:08:01.125Z,53.12
2018-08-04T22:10:13.883Z,54.10
2018-08-04T22:12:26.166Z,53.50
2018-08-04T22:14:38.334Z,53.97
2018-08-04T22:16:50.579Z,54.78
2018-08-04T22:19:02.936Z,55.29
2018-08-04T22:21:15.303Z,54.40
2018-08-04T22:23:27.625Z,54.33
2018-08-04T22:25:39.848Z,54.87
2018-08-04T22:27:52.316Z,55.29
2018-08-04T22:30:05.909Z,55.73
2018-08-04T22:32:18.148Z,56.04
2018-08-04T22:34:30.358Z,55.91
2018-08-04T22:36:42.626Z,55.95
2018-08-04T22:38:54.795Z,56.91
2018-08-04T22:41:06.975Z,56.03
2018-08-04T22:43:19.207Z,56.78
2018-08-04T22:46:00.305Z,56.23
2018-08-04T22:48:12.631Z,56.56
2018-08-04T22:50:24.979Z,56.43
2018-08-04T22:52:37.534Z,56.13
2018-08-04T22:54:49.775Z,56.96
2018-08-04T22:57:07.341Z,56.94
2018-08-04T22:59:19.526Z,57.60
2018-08-04T23:01:31.738Z,57.74
2018-08-04T23:05:56.279Z,57.83
2018-08-04T23:08:09.305Z,58.15
2018-08-04T23:10:21.530Z,58.49
2018-08-04T23:12:33.732Z,58.73
2018-08-04T23:14:45.995Z,58.32
2018-08-04T23:16:58.183Z,57.40
2018-08-04T23:19:10.402Z,57.64
2018-08-04T23:21:22.623Z,57.62
2018-08-04T23:23:34.850Z,57.78
2018-08-04T23:25:47.086Z,57.78
2018-08-04T23:27:59.275Z,57.97
2018-08-04T23:30:11.531Z,57.93
2018-08-04T23:32:23.727Z,57.19
2018-08-04T23:34:35.935Z,57.91
2018-08-04T23:36:48.785Z,58.64
2018-08-04T23:39:00.987Z,57.34
2018-08-04T23:41:13.508Z,57.54
2018-08-04T23:43:25.717Z,57.40
2018-08-04T23:45:37.899Z,57.92
2018-08-04T23:47:50.129Z,58.26
2018-08-04T23:50:02.670Z,58.13
2018-08-04T23:52:15.190Z,58.46
2018-08-04T23:54:27.435Z,58.34
2018-08-04T23:56:39.717Z,57.86
2018-08-04T23:58:51.906Z,58.14
